Time;durP1;ratioP1;P1;durP2;ratioP2;P2;SDS_P1;SDS_P2;PMS_P1;PMS_P2;Temp;Humidity;BMP_temperature;BMP_pressure;BME280_temperature;BME280_humidity;BME280_pressure;Samples;Min_cycle;Max_cycle;Signal;HPM_P1;HPM_P2
2022/03/24 00:00:09;;;;;;;30.55;14.32;;;5.30;64.20;;;;;;5052219;28;20090;-70
2022/03/24 00:02:41;;;;;;;33.70;14.55;;;5.20;63.90;;;;;;5058529;28;20087;-70
2022/03/24 00:05:08;;;;;;;33.03;13.68;;;5.20;64.10;;;;;;5039429;28;20045;-69
2022/03/24 00:07:34;;;;;;;29.40;14.32;;;5.20;64.10;;;;;;5061304;28;20032;-69
2022/03/24 00:10:00;;;;;;;29.55;14.82;;;5.10;64.40;;;;;;5054012;28;20178;-69
2022/03/24 00:12:27;;;;;;;29.92;14.77;;;5.00;64.00;;;;;;5055890;28;20488;-71
2022/03/24 00:14:53;;;;;;;31.20;15.48;;;5.00;64.50;;;;;;5057696;28;20125;-70
2022/03/24 00:17:18;;;;;;;30.58;14.25;;;4.90;64.20;;;;;;5055432;28;20029;-70
2022/03/24 00:19:44;;;;;;;27.95;14.43;;;4.80;64.80;;;;;;5035730;28;20147;-70
2022/03/24 00:22:10;;;;;;;28.55;15.35;;;4.80;65.00;;;;;;5053039;28;20031;-70
2022/03/24 00:24:37;;;;;;;31.10;15.23;;;4.70;64.60;;;;;;5058300;28;20036;-69
2022/03/24 00:27:03;;;;;;;30.60;15.45;;;4.60;65.40;;;;;;5055520;28;20029;-69
2022/03/24 00:29:29;;;;;;;29.05;14.50;;;4.60;65.80;;;;;;5055206;28;20037;-69
2022/03/24 00:31:55;;;;;;;29.10;15.23;;;4.60;66.20;;;;;;5035389;28;20687;-69
2022/03/24 00:34:20;;;;;;;30.70;15.27;;;4.60;66.90;;;;;;5037003;28;20968;-69
2022/03/24 00:36:46;;;;;;;31.70;15.13;;;4.60;68.00;;;;;;5058008;28;20085;-69
2022/03/24 00:39:12;;;;;;;31.85;15.80;;;4.60;68.00;;;;;;5044089;28;20036;-70
2022/03/24 00:41:37;;;;;;;36.67;15.95;;;4.60;68.40;;;;;;5057452;28;20037;-69
2022/03/24 00:44:03;;;;;;;33.17;15.30;;;4.60;68.80;;;;;;5030955;28;20139;-70
2022/03/24 00:46:31;;;;;;;29.85;14.85;;;4.50;69.00;;;;;;5053027;28;20041;-70
2022/03/24 00:48:59;;;;;;;30.08;15.02;;;4.50;69.50;;;;;;5038666;28;20062;-70
2022/03/24 00:51:25;;;;;;;31.45;15.43;;;4.50;69.10;;;;;;5058398;28;20021;-70
2022/03/24 00:53:50;;;;;;;29.45;15.07;;;4.40;68.20;;;;;;5054720;28;20034;-69
2022/03/24 00:56:18;;;;;;;29.23;15.05;;;4.30;67.30;;;;;;5055849;28;20068;-69
2022/03/24 00:58:44;;;;;;;28.02;14.98;;;4.20;67.70;;;;;;5058216;28;20040;-70
2022/03/24 01:01:12;;;;;;;31.05;15.35;;;4.20;68.70;;;;;;5059007;28;20086;-70
2022/03/24 01:03:39;;;;;;;32.90;15.82;;;4.20;69.40;;;;;;5057968;28;20037;-70
2022/03/24 01:06:07;;;;;;;32.70;15.77;;;4.10;69.90;;;;;;5054478;28;20026;-69
2022/03/24 01:08:37;;;;;;;33.38;15.70;;;4.10;70.30;;;;;;5056842;28;20021;-71
2022/03/24 01:11:06;;;;;;;32.05;14.80;;;4.10;70.70;;;;;;5056476;28;20089;-69
2022/03/24 01:13:36;;;;;;;35.88;16.58;;;4.00;71.10;;;;;;5042399;28;20115;-69
2022/03/24 01:16:03;;;;;;;29.33;14.40;;;4.00;71.30;;;;;;5053829;28;20800;-69
2022/03/24 01:18:30;;;;;;;32.65;15.40;;;4.00;69.80;;;;;;5037335;28;20385;-71
2022/03/24 01:20:56;;;;;;;30.05;14.35;;;3.90;69.00;;;;;;5056069;28;20829;-71
2022/03/24 01:23:25;;;;;;;28.00;14.30;;;3.80;69.80;;;;;;5041110;28;20032;-70
2022/03/24 01:25:51;;;;;;;33.30;16.17;;;3.70;70.70;;;;;;5054983;28;20028;-69
2022/03/24 01:28:18;;;;;;;30.08;15.98;;;3.70;71.60;;;;;;5051708;28;20044;-70
2022/03/24 01:30:45;;;;;;;30.35;16.05;;;3.60;71.60;;;;;;5038306;28;20037;-71
2022/03/24 01:33:11;;;;;;;34.03;15.18;;;3.50;71.60;;;;;;5040369;28;20031;-70
2022/03/24 01:35:37;;;;;;;30.90;16.33;;;3.60;71.20;;;;;;5038397;28;20032;-70
2022/03/24 01:38:03;;;;;;;32.25;16.10;;;3.50;71.50;;;;;;5051571;28;20025;-70
2022/03/24 01:40:29;;;;;;;32.20;14.55;;;3.50;72.20;;;;;;5053749;28;20540;-70
2022/03/24 01:42:55;;;;;;;30.30;14.65;;;3.40;72.40;;;;;;5056652;28;20036;-71
2022/03/24 01:45:21;;;;;;;34.85;15.73;;;3.40;73.00;;;;;;5041165;28;20036;-70
2022/03/24 01:47:47;;;;;;;30.58;15.32;;;3.40;73.10;;;;;;5034810;28;20028;-70
2022/03/24 01:50:15;;;;;;;37.72;16.67;;;3.30;73.20;;;;;;5034975;28;20033;-70
2022/03/24 01:52:43;;;;;;;34.08;16.42;;;3.30;73.50;;;;;;5037964;28;20033;-70
2022/03/24 01:55:11;;;;;;;34.10;16.98;;;3.30;74.50;;;;;;5057191;28;20101;-70
2022/03/24 01:57:39;;;;;;;41.60;17.77;;;3.30;74.20;;;;;;5038088;28;20054;-70
2022/03/24 02:00:07;;;;;;;34.70;16.15;;;3.30;74.70;;;;;;5051701;28;20094;-70
2022/03/24 02:02:41;;;;;;;31.63;15.63;;;3.20;74.70;;;;;;5051662;28;20500;-69
2022/03/24 02:05:09;;;;;;;33.75;15.57;;;3.20;74.40;;;;;;5037836;28;20039;-69
2022/03/24 02:07:36;;;;;;;32.15;16.23;;;3.10;74.30;;;;;;5042025;28;20113;-69
2022/03/24 02:10:05;;;;;;;31.90;14.43;;;3.00;73.50;;;;;;5032254;28;20023;-71
2022/03/24 02:12:33;;;;;;;33.13;16.70;;;3.00;73.30;;;;;;5051746;28;20577;-70
2022/03/24 02:14:59;;;;;;;29.83;16.38;;;2.90;73.60;;;;;;5046432;28;20029;-70
2022/03/24 02:17:30;;;;;;;34.13;16.35;;;2.90;73.70;;;;;;5058397;28;20028;-70
2022/03/24 02:20:00;;;;;;;34.40;16.73;;;2.90;73.40;;;;;;5036565;28;20217;-69
2022/03/24 02:22:29;;;;;;;35.35;15.30;;;2.80;74.10;;;;;;5038394;28;20085;-70
2022/03/24 02:24:55;;;;;;;35.13;16.40;;;2.80;74.90;;;;;;5057540;28;20490;-70
2022/03/24 02:27:23;;;;;;;34.88;16.63;;;2.70;75.40;;;;;;5058296;28;20036;-69
2022/03/24 02:29:50;;;;;;;31.63;16.40;;;2.70;75.70;;;;;;5063345;28;20017;-70
2022/03/24 02:32:20;;;;;;;38.95;15.95;;;2.60;75.90;;;;;;5055050;28;20033;-70
2022/03/24 02:34:49;;;;;;;38.65;16.38;;;2.60;76.20;;;;;;5059525;28;20609;-71
2022/03/24 02:37:19;;;;;;;35.83;16.58;;;2.60;76.30;;;;;;5056575;28;20032;-69
2022/03/24 02:39:50;;;;;;;38.80;18.48;;;2.60;76.40;;;;;;5063189;28;20032;-70
2022/03/24 02:42:20;;;;;;;37.30;16.50;;;2.60;76.70;;;;;;5056807;28;20124;-69
2022/03/24 02:44:51;;;;;;;38.95;16.08;;;2.60;76.80;;;;;;5040164;28;20036;-70
2022/03/24 02:47:18;;;;;;;41.03;17.67;;;2.60;76.80;;;;;;5058751;28;20743;-70
2022/03/24 02:49:45;;;;;;;38.65;16.88;;;2.60;76.80;;;;;;5062812;28;20760;-70
2022/03/24 02:52:12;;;;;;;35.35;15.30;;;2.60;76.90;;;;;;5052646;28;20048;-70
2022/03/24 02:54:38;;;;;;;36.45;17.15;;;2.50;77.10;;;;;;5057134;28;20050;-70
2022/03/24 02:57:04;;;;;;;34.85;16.35;;;2.50;77.20;;;;;;5059846;28;20056;-70
2022/03/24 02:59:30;;;;;;;35.97;16.63;;;2.40;77.80;;;;;;5060964;28;20032;-69
2022/03/24 03:02:14;;;;;;;33.55;14.90;;;2.40;78.50;;;;;;5061048;28;20086;-69
2022/03/24 03:04:44;;;;;;;34.58;16.17;;;2.40;78.40;;;;;;5053253;28;20035;-70
2022/03/24 03:07:11;;;;;;;38.28;17.38;;;2.30;78.90;;;;;;5056370;28;20116;-69
2022/03/24 03:09:40;;;;;;;33.45;16.30;;;2.30;79.30;;;;;;5059320;28;20136;-69
2022/03/24 03:12:08;;;;;;;32.25;15.60;;;2.30;79.10;;;;;;5061612;28;20032;-70
2022/03/24 03:14:34;;;;;;;38.80;17.58;;;2.30;79.50;;;;;;5056300;28;20115;-69
2022/03/24 03:17:00;;;;;;;38.00;17.25;;;2.30;80.10;;;;;;5054506;28;20206;-70
2022/03/24 03:19:27;;;;;;;40.38;17.30;;;2.30;80.60;;;;;;5059789;28;20043;-69
2022/03/24 03:21:52;;;;;;;35.78;16.15;;;2.30;80.80;;;;;;5059954;28;20109;-69
2022/03/24 03:24:21;;;;;;;36.22;16.95;;;2.30;80.60;;;;;;5058833;28;20037;-70
2022/03/24 03:26:47;;;;;;;31.75;16.17;;;2.40;79.20;;;;;;5055575;28;20760;-69
2022/03/24 03:29:13;;;;;;;31.80;15.75;;;2.30;77.80;;;;;;5057417;28;20360;-69
2022/03/24 03:31:39;;;;;;;34.95;17.13;;;2.30;77.00;;;;;;5060425;28;20327;-70
2022/03/24 03:34:07;;;;;;;28.67;14.38;;;2.20;76.70;;;;;;5061644;28;20537;-69
2022/03/24 03:36:33;;;;;;;36.28;15.48;;;2.10;77.00;;;;;;5059651;28;20036;-72
2022/03/24 03:38:59;;;;;;;35.92;14.88;;;2.10;77.80;;;;;;5055801;28;20035;-71
2022/03/24 03:41:27;;;;;;;28.73;14.45;;;2.00;78.00;;;;;;5061002;28;20055;-71
2022/03/24 03:43:53;;;;;;;34.25;16.50;;;1.90;78.10;;;;;;5059798;28;20060;-72
2022/03/24 03:46:19;;;;;;;35.03;16.60;;;1.90;78.20;;;;;;5058619;28;20064;-71
2022/03/24 03:48:45;;;;;;;32.40;16.45;;;1.90;78.80;;;;;;5061914;28;20614;-72
2022/03/24 03:51:12;;;;;;;33.83;15.95;;;1.80;79.00;;;;;;5052569;28;20060;-71
2022/03/24 03:53:37;;;;;;;33.50;15.65;;;1.80;78.90;;;;;;5041805;28;20036;-72
2022/03/24 03:56:05;;;;;;;32.95;16.20;;;1.70;78.40;;;;;;5060021;28;20044;-71
2022/03/24 03:58:34;;;;;;;34.47;15.73;;;1.70;78.60;;;;;;5055604;28;20128;-72
2022/03/24 04:01:00;;;;;;;35.30;16.42;;;1.70;79.30;;;;;;5054027;28;20071;-72
2022/03/24 04:03:28;;;;;;;36.97;16.33;;;1.60;80.30;;;;;;5054576;28;20075;-71
2022/03/24 04:05:58;;;;;;;36.33;16.10;;;1.60;80.80;;;;;;5059472;28;20709;-71
2022/03/24 04:08:24;;;;;;;36.97;17.33;;;1.60;80.90;;;;;;5055347;28;20472;-71
2022/03/24 04:10:50;;;;;;;34.08;15.82;;;1.60;80.50;;;;;;5054762;28;20049;-71
2022/03/24 04:13:17;;;;;;;37.55;17.58;;;1.50;80.40;;;;;;5055817;28;20033;-71
2022/03/24 04:15:43;;;;;;;35.80;16.75;;;1.50;81.20;;;;;;5061109;28;20040;-72
2022/03/24 04:18:09;;;;;;;36.25;16.17;;;1.50;82.00;;;;;;5057225;28;20388;-71
2022/03/24 04:20:36;;;;;;;36.35;16.85;;;1.50;82.50;;;;;;5061577;28;20040;-71
2022/03/24 04:23:04;;;;;;;38.13;17.05;;;1.50;82.50;;;;;;5057897;28;20058;-72
2022/03/24 04:25:30;;;;;;;32.47;15.85;;;1.40;82.20;;;;;;5056300;28;20537;-72
2022/03/24 04:27:56;;;;;;;34.53;16.80;;;1.40;81.30;;;;;;5061087;28;20056;-72
2022/03/24 04:30:22;;;;;;;35.78;16.98;;;1.40;80.80;;;;;;5059004;28;20759;-72
2022/03/24 04:32:49;;;;;;;37.03;18.00;;;1.30;80.90;;;;;;5041527;28;20137;-72
2022/03/24 04:35:15;;;;;;;32.03;15.93;;;1.30;80.80;;;;;;5057803;28;20020;-72
2022/03/24 04:37:42;;;;;;;45.83;17.83;;;1.30;81.00;;;;;;5060066;28;20408;-72
2022/03/24 04:40:15;;;;;;;40.80;17.27;;;1.30;81.70;;;;;;5056816;28;20441;-72
2022/03/24 04:42:45;;;;;;;37.20;16.70;;;1.30;82.40;;;;;;5054060;28;20492;-72
2022/03/24 04:45:13;;;;;;;40.42;17.55;;;1.30;83.10;;;;;;5053019;28;20035;-72
2022/03/24 04:47:41;;;;;;;37.33;17.10;;;1.30;83.50;;;;;;5053263;28;20095;-71
2022/03/24 04:50:07;;;;;;;38.72;17.20;;;1.30;83.80;;;;;;5051709;28;20024;-72
2022/03/24 04:52:33;;;;;;;40.22;17.50;;;1.30;83.90;;;;;;5057510;28;20033;-72
2022/03/24 04:54:59;;;;;;;38.25;16.88;;;1.30;84.00;;;;;;5058244;28;20440;-72
2022/03/24 04:57:29;;;;;;;37.72;16.63;;;1.30;83.80;;;;;;5052980;28;20078;-72
2022/03/24 04:59:57;;;;;;;40.25;17.42;;;1.30;83.70;;;;;;5058781;28;20571;-71
2022/03/24 05:02:24;;;;;;;38.60;16.52;;;1.30;83.90;;;;;;5055319;28;20035;-72
2022/03/24 05:04:52;;;;;;;36.63;16.42;;;1.30;84.00;;;;;;5051400;28;20024;-72
2022/03/24 05:07:18;;;;;;;38.97;17.90;;;1.30;84.10;;;;;;5055298;28;20048;-72
2022/03/24 05:09:45;;;;;;;35.10;17.00;;;1.30;83.90;;;;;;5056948;28;20025;-71
2022/03/24 05:12:11;;;;;;;44.65;17.13;;;1.30;83.70;;;;;;5057187;28;20086;-71
2022/03/24 05:14:38;;;;;;;37.85;17.08;;;1.30;83.60;;;;;;5049403;28;20162;-71
2022/03/24 05:17:05;;;;;;;39.28;17.85;;;1.30;83.60;;;;;;5054606;28;20035;-72
2022/03/24 05:19:31;;;;;;;42.40;18.00;;;1.40;83.40;;;;;;5052450;28;20634;-71
2022/03/24 05:21:57;;;;;;;38.50;17.70;;;1.40;83.30;;;;;;5056979;28;20067;-71
2022/03/24 05:24:23;;;;;;;39.15;18.38;;;1.40;83.40;;;;;;5057125;28;20029;-72
2022/03/24 05:26:49;;;;;;;37.50;17.95;;;1.40;83.40;;;;;;5058502;28;20571;-73
2022/03/24 05:29:14;;;;;;;33.35;16.15;;;1.40;83.00;;;;;;5036312;28;20025;-71
2022/03/24 05:31:40;;;;;;;36.20;15.30;;;1.40;82.80;;;;;;5055188;28;20043;-71
2022/03/24 05:34:06;;;;;;;39.25;17.17;;;1.50;83.10;;;;;;5056297;28;20590;-71
2022/03/24 05:36:31;;;;;;;40.55;16.92;;;1.50;82.80;;;;;;5049450;28;20067;-77
2022/03/24 05:38:57;;;;;;;37.85;15.80;;;1.50;82.50;;;;;;5054085;28;20044;-72
2022/03/24 05:41:24;;;;;;;41.35;17.88;;;1.60;82.70;;;;;;5058462;28;20040;-71
2022/03/24 05:44:05;;;;;;;44.58;18.02;;;1.70;83.00;;;;;;5056946;28;20125;-71
2022/03/24 05:46:49;;;;;;;39.80;17.80;;;1.80;81.80;;;;;;5057479;28;20041;-71
2022/03/24 05:49:17;;;;;;;42.45;17.13;;;1.90;81.40;;;;;;5056982;28;20024;-71
2022/03/24 05:52:02;;;;;;;36.15;16.52;;;2.00;81.10;;;;;;5038561;28;20025;-71
2022/03/24 05:54:27;;;;;;;40.20;17.52;;;2.10;80.00;;;;;;5058147;28;20792;-73
2022/03/24 05:56:53;;;;;;;40.30;17.95;;;2.20;79.70;;;;;;5061408;28;20048;-68
2022/03/24 05:59:19;;;;;;;41.92;18.40;;;2.30;79.30;;;;;;5050544;28;20040;-73
2022/03/24 06:01:46;;;;;;;38.70;16.98;;;2.50;78.30;;;;;;5062841;28;20028;-73
2022/03/24 06:04:13;;;;;;;35.92;16.73;;;2.60;77.60;;;;;;5053774;28;20707;-73
2022/03/24 06:06:40;;;;;;;35.80;18.10;;;2.70;78.20;;;;;;5055108;28;20032;-72
2022/03/24 06:09:06;;;;;;;41.92;17.75;;;2.80;78.60;;;;;;5056662;28;20036;-72
2022/03/24 06:11:36;;;;;;;42.00;18.75;;;2.90;78.70;;;;;;5060918;28;20033;-71
2022/03/24 06:14:08;;;;;;;34.35;17.13;;;3.00;79.10;;;;;;5063769;28;20032;-71
2022/03/24 06:16:34;;;;;;;43.38;18.60;;;3.10;80.00;;;;;;5063586;28;20032;-73
2022/03/24 06:19:00;;;;;;;37.08;17.23;;;3.20;79.30;;;;;;5053822;28;20036;-70
2022/03/24 06:21:26;;;;;;;42.25;19.02;;;3.40;79.20;;;;;;5061355;28;20047;-72
2022/03/24 06:23:53;;;;;;;40.80;18.15;;;3.50;78.60;;;;;;5059350;28;20032;-71
2022/03/24 06:26:21;;;;;;;50.92;18.98;;;3.60;77.40;;;;;;5055823;28;20097;-75
2022/03/24 06:28:48;;;;;;;45.97;20.33;;;3.70;76.30;;;;;;5041149;28;20040;-75
2022/03/24 06:31:14;;;;;;;45.65;19.90;;;3.90;75.40;;;;;;5058282;28;20028;-68
2022/03/24 06:33:40;;;;;;;43.47;19.33;;;3.90;74.70;;;;;;5043713;28;20650;-69
2022/03/24 06:36:08;;;;;;;43.55;19.02;;;4.10;74.40;;;;;;5058294;28;20048;-69
2022/03/24 06:38:35;;;;;;;47.60;19.35;;;4.20;74.50;;;;;;5058827;28;20116;-71
2022/03/24 06:41:01;;;;;;;40.88;19.15;;;4.40;75.10;;;;;;5053128;28;20060;-69
2022/03/24 06:43:27;;;;;;;41.90;19.75;;;4.50;74.10;;;;;;5060161;28;20135;-69
2022/03/24 06:45:53;;;;;;;44.00;19.45;;;4.60;73.80;;;;;;5061246;28;20047;-70
2022/03/24 06:48:19;;;;;;;50.80;20.80;;;4.80;73.70;;;;;;5055410;28;20055;-67
2022/03/24 06:50:44;;;;;;;175.13;59.00;;;5.00;73.50;;;;;;5059421;28;20044;-66
2022/03/24 06:53:10;;;;;;;115.90;44.88;;;5.20;72.20;;;;;;5058186;28;20029;-67
2022/03/24 06:55:36;;;;;;;51.45;24.10;;;5.40;70.50;;;;;;5054641;28;20041;-67
2022/03/24 06:58:02;;;;;;;48.33;20.83;;;5.60;70.80;;;;;;5058761;28;20115;-68
2022/03/24 07:00:28;;;;;;;44.25;21.40;;;5.80;69.20;;;;;;5052644;28;20047;-69
2022/03/24 07:02:54;;;;;;;43.05;19.88;;;6.00;69.00;;;;;;5055721;28;20041;-69
2022/03/24 07:05:19;;;;;;;39.83;19.70;;;6.30;68.40;;;;;;5056503;28;20056;-69
2022/03/24 07:07:45;;;;;;;40.75;20.20;;;7.90;65.90;;;;;;5053692;28;20051;-69
2022/03/24 07:10:11;;;;;;;38.92;19.83;;;10.50;57.70;;;;;;5058897;28;20766;-69
2022/03/24 07:12:37;;;;;;;40.83;20.20;;;13.60;49.30;;;;;;5059325;28;20040;-70
2022/03/24 07:15:08;;;;;;;39.20;20.67;;;17.30;39.90;;;;;;5056311;28;20025;-70
2022/03/24 07:17:35;;;;;;;37.53;21.42;;;19.70;35.20;;;;;;5058418;28;20037;-69
2022/03/24 07:20:05;;;;;;;47.38;23.23;;;20.20;33.00;;;;;;5062538;28;20041;-69
2022/03/24 07:22:32;;;;;;;44.33;23.95;;;18.70;34.30;;;;;;5058685;28;20477;-69
2022/03/24 07:24:58;;;;;;;59.58;31.90;;;18.20;35.40;;;;;;5054395;28;20059;-68
2022/03/24 07:27:24;;;;;;;48.35;27.77;;;17.70;36.20;;;;;;5057795;28;20109;-67
2022/03/24 07:29:50;;;;;;;46.45;25.77;;;18.40;35.20;;;;;;5056976;28;20496;-67
2022/03/24 07:32:16;;;;;;;44.45;26.15;;;18.90;33.80;;;;;;5053805;28;20076;-67
2022/03/24 07:34:41;;;;;;;43.20;24.60;;;17.90;34.70;;;;;;5055600;28;20525;-69
2022/03/24 07:37:08;;;;;;;49.20;23.73;;;16.50;37.60;;;;;;5061028;28;20028;-67
2022/03/24 07:39:34;;;;;;;37.97;23.52;;;16.30;38.40;;;;;;5055201;28;20544;-68
2022/03/24 07:41:59;;;;;;;41.40;23.13;;;18.30;35.80;;;;;;5056484;28;20148;-67
2022/03/24 07:44:26;;;;;;;41.97;22.17;;;19.60;33.10;;;;;;5042280;28;20033;-67
2022/03/24 07:46:51;;;;;;;40.05;22.25;;;20.30;32.10;;;;;;5057832;28;20044;-67
2022/03/24 07:49:17;;;;;;;41.95;24.05;;;21.50;30.50;;;;;;5060406;28;20052;-67
2022/03/24 07:51:46;;;;;;;40.35;22.42;;;22.80;29.20;;;;;;5056226;28;20076;-67
2022/03/24 07:54:12;;;;;;;37.72;22.45;;;23.60;28.50;;;;;;5062751;28;20082;-67
2022/03/24 07:56:38;;;;;;;36.85;23.42;;;24.70;27.30;;;;;;5057276;28;20556;-67
2022/03/24 07:59:06;;;;;;;38.05;23.38;;;25.30;26.60;;;;;;5055467;28;20051;-68
2022/03/24 08:01:36;;;;;;;51.20;24.52;;;25.60;26.10;;;;;;5050714;28;20083;-68
2022/03/24 08:04:04;;;;;;;39.20;24.05;;;26.20;25.80;;;;;;5051348;28;20036;-68
2022/03/24 08:06:30;;;;;;;37.05;21.83;;;25.70;25.90;;;;;;5055891;28;20028;-68
2022/03/24 08:08:57;;;;;;;36.47;23.55;;;25.60;26.20;;;;;;5054026;28;20044;-67
2022/03/24 08:11:25;;;;;;;34.17;22.52;;;25.60;25.80;;;;;;5053734;28;20033;-67
2022/03/24 08:13:53;;;;;;;38.88;23.90;;;25.30;26.10;;;;;;5056706;28;20079;-67
2022/03/24 08:16:24;;;;;;;42.50;24.13;;;24.80;26.30;;;;;;5054285;28;20043;-68
2022/03/24 08:18:50;;;;;;;38.95;23.67;;;24.60;26.70;;;;;;5060656;28;20044;-67
2022/03/24 08:21:16;;;;;;;43.88;25.27;;;24.30;26.80;;;;;;5052998;28;20049;-67
2022/03/24 08:23:42;;;;;;;37.13;23.45;;;24.20;26.70;;;;;;5061190;28;20029;-68
2022/03/24 08:26:09;;;;;;;36.45;22.73;;;24.00;26.90;;;;;;5055864;28;20037;-67
2022/03/24 08:28:35;;;;;;;40.75;24.13;;;23.60;27.50;;;;;;5058332;28;20054;-67
2022/03/24 08:31:01;;;;;;;45.22;23.65;;;22.90;27.80;;;;;;5058443;28;20414;-67
2022/03/24 08:33:27;;;;;;;38.55;23.55;;;22.30;28.40;;;;;;5054211;28;20060;-66
2022/03/24 08:35:53;;;;;;;41.20;23.58;;;22.00;28.70;;;;;;5055221;28;20041;-68
2022/03/24 08:38:19;;;;;;;38.08;23.60;;;22.90;28.40;;;;;;5054122;28;20025;-70
2022/03/24 08:40:45;;;;;;;37.25;22.83;;;25.00;26.80;;;;;;5054828;28;20044;-69
2022/03/24 08:43:10;;;;;;;32.92;21.45;;;26.50;25.70;;;;;;5053644;28;20116;-69
2022/03/24 08:45:37;;;;;;;37.17;23.52;;;27.20;25.30;;;;;;5053298;28;20435;-69
2022/03/24 08:48:03;;;;;;;40.90;23.10;;;26.40;25.60;;;;;;5053349;28;20107;-69
2022/03/24 08:50:29;;;;;;;41.58;24.42;;;24.10;27.60;;;;;;5058011;28;20032;-69
2022/03/24 08:52:55;;;;;;;35.22;22.05;;;22.20;29.10;;;;;;5053920;28;20033;-70
2022/03/24 08:55:22;;;;;;;36.03;23.17;;;22.00;29.70;;;;;;5056990;28;20028;-69
2022/03/24 08:57:48;;;;;;;38.92;23.42;;;23.70;28.50;;;;;;5057134;28;20075;-70
2022/03/24 09:00:17;;;;;;;31.58;20.98;;;27.20;26.00;;;;;;5061447;28;20036;-69
2022/03/24 09:02:51;;;;;;;36.60;23.63;;;29.70;24.60;;;;;;5058547;28;20049;-69
2022/03/24 09:05:20;;;;;;;36.20;23.02;;;30.50;23.80;;;;;;5055108;28;20043;-70
2022/03/24 09:07:49;;;;;;;31.70;21.90;;;30.70;23.30;;;;;;5056687;28;20163;-70
2022/03/24 09:10:15;;;;;;;32.22;22.38;;;31.60;22.60;;;;;;5052524;28;20017;-70
2022/03/24 09:12:46;;;;;;;33.92;23.27;;;32.60;22.40;;;;;;5050009;28;20025;-68
2022/03/24 09:15:14;;;;;;;35.83;22.95;;;33.20;22.00;;;;;;5058817;28;20101;-68
2022/03/24 09:17:40;;;;;;;39.47;23.38;;;33.80;22.00;;;;;;5057504;28;20028;-70
2022/03/24 09:20:09;;;;;;;34.30;22.13;;;33.60;21.90;;;;;;5057201;28;20028;-69
2022/03/24 09:22:37;;;;;;;32.65;22.08;;;33.10;21.70;;;;;;5045776;28;20032;-69
2022/03/24 09:25:03;;;;;;;30.92;20.63;;;32.20;22.30;;;;;;5054437;28;20695;-69
2022/03/24 09:27:29;;;;;;;33.45;21.23;;;32.70;21.10;;;;;;5055218;28;20107;-69
2022/03/24 09:29:54;;;;;;;32.42;20.08;;;32.70;21.50;;;;;;5050106;28;20031;-68
2022/03/24 09:32:20;;;;;;;33.85;20.17;;;32.30;21.50;;;;;;5053592;28;20451;-72
2022/03/24 09:34:46;;;;;;;29.52;18.95;;;33.40;21.00;;;;;;5051946;28;20037;-68
2022/03/24 09:37:16;;;;;;;27.73;19.52;;;33.10;21.00;;;;;;5050835;28;20192;-68
2022/03/24 09:39:43;;;;;;;35.45;21.23;;;30.60;22.10;;;;;;5053625;28;20033;-68
2022/03/24 09:42:09;;;;;;;32.45;20.10;;;27.60;23.50;;;;;;5055103;28;20115;-68
2022/03/24 09:44:35;;;;;;;29.60;18.60;;;25.20;25.80;;;;;;5045297;28;20136;-68
2022/03/24 09:47:01;;;;;;;32.50;19.75;;;24.60;25.80;;;;;;5047148;28;20174;-69
2022/03/24 09:49:27;;;;;;;30.08;20.05;;;26.00;24.40;;;;;;5054259;28;20060;-68
2022/03/24 09:51:53;;;;;;;34.72;21.15;;;28.30;23.70;;;;;;5056855;28;20029;-68
2022/03/24 09:54:19;;;;;;;29.73;20.17;;;29.50;22.90;;;;;;5055672;28;20417;-68
2022/03/24 09:56:45;;;;;;;32.65;19.38;;;28.60;23.50;;;;;;5050412;28;20036;-72
2022/03/24 09:59:11;;;;;;;32.72;18.58;;;27.00;23.80;;;;;;5033754;28;20144;-67
2022/03/24 10:01:39;;;;;;;32.15;17.25;;;25.10;25.70;;;;;;5059591;28;20047;-68
2022/03/24 10:04:10;;;;;;;28.13;16.13;;;23.60;25.60;;;;;;5037540;28;20025;-69
2022/03/24 10:06:39;;;;;;;28.67;17.67;;;24.50;25.80;;;;;;5052156;28;20055;-69
2022/03/24 10:09:05;;;;;;;26.70;16.75;;;28.90;23.50;;;;;;5040748;28;20855;-66
2022/03/24 10:11:31;;;;;;;30.52;17.25;;;31.80;21.90;;;;;;5051147;28;20040;-66
2022/03/24 10:13:58;;;;;;;25.92;15.95;;;35.10;19.80;;;;;;5055871;28;20036;-66
2022/03/24 10:16:34;;;;;;;27.15;16.50;;;37.80;19.50;;;;;;5055279;28;20040;-65
2022/03/24 10:19:02;;;;;;;23.83;15.38;;;39.50;18.80;;;;;;5056434;28;20032;-66
2022/03/24 10:21:29;;;;;;;26.05;15.98;;;40.00;18.80;;;;;;5051834;28;20106;-67
2022/03/24 10:24:01;;;;;;;20.63;13.35;;;39.60;18.40;;;;;;5053255;28;20047;-72
2022/03/24 10:26:47;;;;;;;27.42;17.58;;;38.60;18.30;;;;;;5057782;28;20063;-71
2022/03/24 10:29:20;;;;;;;;;;;38.40;18.60;;;;;;5052706;28;20105;-73
2022/03/24 10:31:58;;;;;;;25.33;15.95;;;40.10;18.60;;;;;;5057906;28;19965;-68
2022/03/24 10:34:46;;;;;;;23.55;14.95;;;42.30;18.00;;;;;;5051643;28;20562;-70
2022/03/24 10:37:18;;;;;;;25.73;15.60;;;43.10;17.60;;;;;;5056547;28;20089;-73
2022/03/24 10:40:03;;;;;;;22.00;13.77;;;43.20;17.40;;;;;;5050468;28;20094;-67
2022/03/24 10:42:32;;;;;;;21.45;14.82;;;43.30;17.30;;;;;;5054793;28;20506;-68
2022/03/24 10:45:09;;;;;;;21.20;14.13;;;43.50;17.50;;;;;;5057130;28;20803;-68
2022/03/24 10:47:47;;;;;;;20.10;12.98;;;43.00;17.20;;;;;;5060591;28;20040;-68
2022/03/24 10:50:31;;;;;;;19.52;12.98;;;41.70;17.50;;;;;;5058617;28;20487;-67
2022/03/24 10:53:09;;;;;;;22.63;13.75;;;40.20;17.40;;;;;;5054396;28;20078;-67
2022/03/24 10:55:44;;;;;;;21.50;13.85;;;38.70;17.80;;;;;;5053187;28;20521;-67
2022/03/24 10:58:26;;;;;;;24.80;14.57;;;36.80;18.20;;;;;;5058978;28;20488;-67
2022/03/24 11:00:54;;;;;;;22.02;14.52;;;36.20;18.70;;;;;;5060301;28;20404;-67
2022/03/24 11:03:21;;;;;;;20.52;13.80;;;37.40;18.20;;;;;;5062471;28;20202;-67
2022/03/24 11:05:47;;;;;;;21.13;12.57;;;38.00;17.50;;;;;;5059457;28;20028;-66
2022/03/24 11:08:17;;;;;;;25.83;15.23;;;39.10;18.00;;;;;;5060627;28;20020;-67
2022/03/24 11:10:46;;;;;;;28.20;14.48;;;39.10;18.10;;;;;;5061897;28;20081;-67
2022/03/24 11:13:23;;;;;;;20.25;13.65;;;38.50;17.70;;;;;;5056459;28;20033;-73
2022/03/24 11:15:50;;;;;;;20.88;13.07;;;36.80;18.60;;;;;;5056445;28;20552;-69
2022/03/24 11:18:16;;;;;;;23.52;13.27;;;33.70;19.20;;;;;;5058789;28;20483;-72
2022/03/24 11:20:42;;;;;;;23.30;14.68;;;29.80;20.70;;;;;;5058010;28;20054;-64
2022/03/24 11:23:20;;;;;;;21.58;13.13;;;26.80;22.50;;;;;;5055156;28;20889;-67
2022/03/24 11:25:46;;;;;;;20.95;12.82;;;24.40;24.00;;;;;;5054294;28;20090;-70
2022/03/24 11:28:14;;;;;;;23.92;12.88;;;22.80;26.00;;;;;;5057636;28;20817;-71
2022/03/24 11:30:41;;;;;;;22.35;12.90;;;21.90;26.50;;;;;;5053950;28;20036;-64
2022/03/24 11:33:08;;;;;;;20.92;10.50;;;21.40;27.20;;;;;;5062346;28;20044;-65
2022/03/24 11:35:35;;;;;;;21.27;10.57;;;20.90;24.60;;;;;;5057105;28;20551;-65
2022/03/24 11:38:03;;;;;;;22.10;11.55;;;20.30;25.20;;;;;;5056150;28;20039;-64
2022/03/24 11:40:31;;;;;;;20.80;11.25;;;19.90;26.80;;;;;;5059655;28;20212;-67
2022/03/24 11:43:13;;;;;;;20.88;11.35;;;19.80;27.70;;;;;;5053964;28;20825;-64
2022/03/24 11:46:03;;;;;;;23.40;10.15;;;19.80;28.30;;;;;;5058025;28;20037;-67
2022/03/24 11:48:37;;;;;;;26.88;12.98;;;19.70;26.30;;;;;;5057800;28;20037;-67
2022/03/24 11:51:16;;;;;;;22.95;12.10;;;19.60;28.60;;;;;;5058077;28;21524;-67
2022/03/24 11:53:43;;;;;;;28.25;12.43;;;19.60;29.40;;;;;;5052275;28;20032;-65
2022/03/24 11:56:10;;;;;;;24.08;13.32;;;19.60;29.60;;;;;;5055102;28;20064;-67
2022/03/24 11:58:46;;;;;;;29.45;13.13;;;19.60;29.70;;;;;;5058989;28;20563;-65
2022/03/24 12:01:17;;;;;;;22.63;12.52;;;19.60;29.10;;;;;;5060674;28;20579;-64
2022/03/24 12:03:51;;;;;;;21.08;12.32;;;19.50;29.40;;;;;;5061789;28;20040;-64
2022/03/24 12:06:18;;;;;;;20.48;11.02;;;19.40;29.30;;;;;;5053091;28;20043;-67
2022/03/24 12:09:00;;;;;;;23.15;11.90;;;19.40;29.60;;;;;;5054186;28;20040;-67
2022/03/24 12:11:32;;;;;;;22.65;11.93;;;19.30;29.00;;;;;;5058880;28;20032;-64
2022/03/24 12:14:19;;;;;;;21.02;11.20;;;19.20;28.90;;;;;;5056893;28;20033;-67
2022/03/24 12:16:52;;;;;;;19.65;11.20;;;19.20;29.90;;;;;;5053110;28;20497;-67
2022/03/24 12:19:36;;;;;;;22.70;10.95;;;19.10;29.00;;;;;;5054930;28;20041;-64
2022/03/24 12:22:25;;;;;;;21.15;10.63;;;19.10;29.80;;;;;;5055946;28;20447;-67
2022/03/24 12:25:11;;;;;;;25.02;13.00;;;19.10;30.60;;;;;;5054388;28;20080;-66
2022/03/24 12:28:01;;;;;;;20.73;10.95;;;19.10;29.10;;;;;;5036790;28;20045;-66
2022/03/24 12:30:39;;;;;;;21.70;10.82;;;18.90;28.80;;;;;;5054556;28;20047;-67
2022/03/24 12:33:13;;;;;;;22.23;11.73;;;18.70;30.30;;;;;;5055934;28;20064;-66
2022/03/24 12:35:49;;;;;;;25.80;10.82;;;18.50;29.60;;;;;;5040813;28;20047;-67
2022/03/24 12:38:33;;;;;;;21.15;11.95;;;18.40;29.70;;;;;;5050930;28;20599;-65